sensor_id;sensor_type;location;lat;lon;timestamp;pressure;altitude;pressure_sealevel;temperature;humidity
70314;BME280;57725;47.526;18.986;2023-04-24T00:02:14;99074.13;;;15.36;91.18
70314;BME280;57725;47.526;18.986;2023-04-24T00:04:41;99067.06;;;15.36;91.16
70314;BME280;57725;47.526;18.986;2023-04-24T00:07:14;99069.00;;;15.34;91.11
70314;BME280;57725;47.526;18.986;2023-04-24T00:09:43;99066.47;;;15.33;91.37
70314;BME280;57725;47.526;18.986;2023-04-24T00:12:11;99068.38;;;15.31;91.22
70314;BME280;57725;47.526;18.986;2023-04-24T00:14:39;99073.66;;;15.31;91.01
70314;BME280;57725;47.526;18.986;2023-04-24T00:17:06;99065.75;;;15.31;91.10
70314;BME280;57725;47.526;18.986;2023-04-24T00:19:34;99063.97;;;15.31;91.04
70314;BME280;57725;47.526;18.986;2023-04-24T00:21:59;99066.69;;;15.30;91.08
70314;BME280;57725;47.526;18.986;2023-04-24T00:24:25;99067.66;;;15.29;91.13
70314;BME280;57725;47.526;18.986;2023-04-24T00:26:50;99058.91;;;15.28;91.27
70314;BME280;57725;47.526;18.986;2023-04-24T00:29:15;99060.69;;;15.28;91.14
70314;BME280;57725;47.526;18.986;2023-04-24T00:31:43;99049.34;;;15.27;91.32
70314;BME280;57725;47.526;18.986;2023-04-24T00:34:09;99050.38;;;15.25;91.28
70314;BME280;57725;47.526;18.986;2023-04-24T00:36:35;99049.56;;;15.24;91.27
70314;BME280;57725;47.526;18.986;2023-04-24T00:39:01;99056.59;;;15.23;91.19
70314;BME280;57725;47.526;18.986;2023-04-24T00:41:29;99047.88;;;15.23;91.26
70314;BME280;57725;47.526;18.986;2023-04-24T00:43:57;99049.69;;;15.23;91.26
70314;BME280;57725;47.526;18.986;2023-04-24T00:46:28;99047.06;;;15.23;91.20
70314;BME280;57725;47.526;18.986;2023-04-24T00:48:56;99046.22;;;15.22;91.35
70314;BME280;57725;47.526;18.986;2023-04-24T00:51:24;99034.00;;;15.21;91.23
70314;BME280;57725;47.526;18.986;2023-04-24T00:53:52;99033.16;;;15.20;91.29
70314;BME280;57725;47.526;18.986;2023-04-24T00:56:20;99034.97;;;15.20;91.09
70314;BME280;57725;47.526;18.986;2023-04-24T00:58:46;99027.16;;;15.18;91.18
70314;BME280;57725;47.526;18.986;2023-04-24T01:01:14;99031.59;;;15.18;91.02
70314;BME280;57725;47.526;18.986;2023-04-24T01:03:40;99036.13;;;15.16;91.05
70314;BME280;57725;47.526;18.986;2023-04-24T01:06:06;99028.22;;;15.16;91.12
70314;BME280;57725;47.526;18.986;2023-04-24T01:08:34;99035.28;;;15.15;91.17
70314;BME280;57725;47.526;18.986;2023-04-24T01:11:05;99034.44;;;15.15;91.00
70314;BME280;57725;47.526;18.986;2023-04-24T01:13:32;99024.03;;;15.13;90.99
70314;BME280;57725;47.526;18.986;2023-04-24T01:15:58;99025.72;;;15.14;90.99
70314;BME280;57725;47.526;18.986;2023-04-24T01:18:23;99019.72;;;15.12;91.01
70314;BME280;57725;47.526;18.986;2023-04-24T01:20:51;99025.81;;;15.13;90.81
70314;BME280;57725;47.526;18.986;2023-04-24T01:23:19;99024.13;;;15.12;90.97
70314;BME280;57725;47.526;18.986;2023-04-24T01:25:44;99019.84;;;15.11;90.95
70314;BME280;57725;47.526;18.986;2023-04-24T01:28:10;99019.00;;;15.10;90.97
70314;BME280;57725;47.526;18.986;2023-04-24T01:30:36;99012.06;;;15.09;90.98
70314;BME280;57725;47.526;18.986;2023-04-24T01:33:03;99009.44;;;15.09;90.91
70314;BME280;57725;47.526;18.986;2023-04-24T01:35:29;99007.75;;;15.08;90.96
70314;BME280;57725;47.526;18.986;2023-04-24T01:37:59;99005.97;;;15.09;90.88
70314;BME280;57725;47.526;18.986;2023-04-24T01:40:28;99005.13;;;15.08;91.07
70314;BME280;57725;47.526;18.986;2023-04-24T01:42:53;98996.50;;;15.06;90.88
70314;BME280;57725;47.526;18.986;2023-04-24T01:45:18;98997.34;;;15.07;91.05
70314;BME280;57725;47.526;18.986;2023-04-24T01:47:45;98991.22;;;15.06;91.00
70314;BME280;57725;47.526;18.986;2023-04-24T01:50:10;98992.06;;;15.07;91.00
70314;BME280;57725;47.526;18.986;2023-04-24T01:52:39;98985.25;;;15.04;91.04
70314;BME280;57725;47.526;18.986;2023-04-24T01:55:07;98984.28;;;15.05;90.85
70314;BME280;57725;47.526;18.986;2023-04-24T01:57:33;98984.28;;;15.05;90.94
70314;BME280;57725;47.526;18.986;2023-04-24T01:59:58;98992.19;;;15.05;91.08
70314;BME280;57725;47.526;18.986;2023-04-24T02:02:28;98983.44;;;15.05;90.93
70314;BME280;57725;47.526;18.986;2023-04-24T02:04:57;98979.25;;;15.02;91.12
70314;BME280;57725;47.526;18.986;2023-04-24T02:07:25;98974.81;;;15.03;90.85
70314;BME280;57725;47.526;18.986;2023-04-24T02:09:50;98975.66;;;15.03;90.94
70314;BME280;57725;47.526;18.986;2023-04-24T02:12:16;98970.50;;;15.02;91.01
70314;BME280;57725;47.526;18.986;2023-04-24T02:14:44;98968.81;;;15.01;91.04
70314;BME280;57725;47.526;18.986;2023-04-24T02:17:12;98965.25;;;15.02;91.07
70314;BME280;57725;47.526;18.986;2023-04-24T02:19:42;98962.63;;;15.02;91.30
70314;BME280;57725;47.526;18.986;2023-04-24T02:22:10;98961.91;;;15.00;91.13
70314;BME280;57725;47.526;18.986;2023-04-24T02:24:36;98955.66;;;15.01;91.26
70314;BME280;57725;47.526;18.986;2023-04-24T02:27:04;98951.38;;;15.00;91.00
70314;BME280;57725;47.526;18.986;2023-04-24T02:29:32;98944.44;;;14.99;90.98
70314;BME280;57725;47.526;18.986;2023-04-24T02:31:58;98949.72;;;14.99;91.30
70314;BME280;57725;47.526;18.986;2023-04-24T02:34:25;98941.91;;;14.97;91.24
70314;BME280;57725;47.526;18.986;2023-04-24T02:36:51;98943.72;;;14.97;91.34
70314;BME280;57725;47.526;18.986;2023-04-24T02:39:19;98941.91;;;14.97;91.19
70314;BME280;57725;47.526;18.986;2023-04-24T02:41:44;98944.56;;;14.97;91.49
70314;BME280;57725;47.526;18.986;2023-04-24T02:44:10;98945.50;;;14.96;91.29
70314;BME280;57725;47.526;18.986;2023-04-24T02:46:37;98948.13;;;14.96;91.25
70314;BME280;57725;47.526;18.986;2023-04-24T02:49:03;98942.16;;;14.94;91.36
70314;BME280;57725;47.526;18.986;2023-04-24T02:51:31;98950.75;;;14.96;91.26
70314;BME280;57725;47.526;18.986;2023-04-24T02:53:56;98941.19;;;14.95;91.58
70314;BME280;57725;47.526;18.986;2023-04-24T02:56:24;98942.16;;;14.94;91.57
70314;BME280;57725;47.526;18.986;2023-04-24T02:58:52;98946.56;;;14.94;91.30
70314;BME280;57725;47.526;18.986;2023-04-24T03:01:17;98944.78;;;14.94;91.63
70314;BME280;57725;47.526;18.986;2023-04-24T03:03:43;98938.66;;;14.94;91.53
70314;BME280;57725;47.526;18.986;2023-04-24T03:06:10;98934.34;;;14.93;91.56
70314;BME280;57725;47.526;18.986;2023-04-24T03:08:36;98931.72;;;14.93;91.57
70314;BME280;57725;47.526;18.986;2023-04-24T03:11:04;98928.25;;;14.92;91.54
70314;BME280;57725;47.526;18.986;2023-04-24T03:13:32;98924.78;;;14.92;91.47
70314;BME280;57725;47.526;18.986;2023-04-24T03:15:57;98922.16;;;14.92;91.59
70314;BME280;57725;47.526;18.986;2023-04-24T03:18:22;98925.72;;;14.91;91.51
70314;BME280;57725;47.526;18.986;2023-04-24T03:20:52;98930.16;;;14.90;91.55
70314;BME280;57725;47.526;18.986;2023-04-24T03:23:18;98924.06;;;14.90;91.70
70314;BME280;57725;47.526;18.986;2023-04-24T03:25:46;98924.91;;;14.90;91.75
70314;BME280;57725;47.526;18.986;2023-04-24T03:28:13;98928.38;;;14.91;91.61
70314;BME280;57725;47.526;18.986;2023-04-24T03:30:38;98923.22;;;14.89;91.61
70314;BME280;57725;47.526;18.986;2023-04-24T03:33:06;98929.47;;;14.88;91.68
70314;BME280;57725;47.526;18.986;2023-04-24T03:35:34;98924.31;;;14.87;91.70
70314;BME280;57725;47.526;18.986;2023-04-24T03:38:03;98920.94;;;14.84;91.72
70314;BME280;57725;47.526;18.986;2023-04-24T03:40:31;98929.47;;;14.88;91.71
70314;BME280;57725;47.526;18.986;2023-04-24T03:43:03;98922.63;;;14.85;91.81
70314;BME280;57725;47.526;18.986;2023-04-24T03:45:28;98921.78;;;14.85;92.02
70314;BME280;57725;47.526;18.986;2023-04-24T03:47:56;98918.31;;;14.84;91.76
70314;BME280;57725;47.526;18.986;2023-04-24T03:50:21;98923.59;;;14.84;91.95
70314;BME280;57725;47.526;18.986;2023-04-24T03:52:46;98929.69;;;14.85;91.93
70314;BME280;57725;47.526;18.986;2023-04-24T03:55:12;98923.59;;;14.84;92.00
70314;BME280;57725;47.526;18.986;2023-04-24T03:57:40;98923.69;;;14.83;92.04
70314;BME280;57725;47.526;18.986;2023-04-24T04:00:06;98920.22;;;14.82;92.05
70314;BME280;57725;47.526;18.986;2023-04-24T04:02:36;98921.06;;;14.83;91.95
70314;BME280;57725;47.526;18.986;2023-04-24T04:05:01;98913.28;;;14.81;91.92
70314;BME280;57725;47.526;18.986;2023-04-24T04:07:30;98915.91;;;14.81;92.08
70314;BME280;57725;47.526;18.986;2023-04-24T04:09:55;98916.84;;;14.80;91.84
70314;BME280;57725;47.526;18.986;2023-04-24T04:12:21;98923.91;;;14.80;92.01
70314;BME280;57725;47.526;18.986;2023-04-24T04:14:48;98921.28;;;14.80;91.93
70314;BME280;57725;47.526;18.986;2023-04-24T04:17:14;98920.44;;;14.79;91.88
70314;BME280;57725;47.526;18.986;2023-04-24T04:19:44;98920.44;;;14.79;92.18
70314;BME280;57725;47.526;18.986;2023-04-24T04:22:10;98918.75;;;14.78;91.95
70314;BME280;57725;47.526;18.986;2023-04-24T04:24:35;98925.69;;;14.79;92.10
70314;BME280;57725;47.526;18.986;2023-04-24T04:27:05;98915.28;;;14.78;91.96
70314;BME280;57725;47.526;18.986;2023-04-24T04:29:30;98907.41;;;14.78;91.87
70314;BME280;57725;47.526;18.986;2023-04-24T04:32:02;98911.81;;;14.77;91.98
70314;BME280;57725;47.526;18.986;2023-04-24T04:34:29;98917.91;;;14.78;92.03
70314;BME280;57725;47.526;18.986;2023-04-24T04:36:57;98927.75;;;14.76;91.98
70314;BME280;57725;47.526;18.986;2023-04-24T04:39:24;98914.59;;;14.76;91.90
70314;BME280;57725;47.526;18.986;2023-04-24T04:41:52;98912.06;;;14.74;92.25
70314;BME280;57725;47.526;18.986;2023-04-24T04:44:20;98913.75;;;14.75;92.11
70314;BME280;57725;47.526;18.986;2023-04-24T04:46:45;98912.06;;;14.74;92.12
70314;BME280;57725;47.526;18.986;2023-04-24T04:49:11;98905.97;;;14.74;92.05
70314;BME280;57725;47.526;18.986;2023-04-24T04:51:36;98905.25;;;14.72;91.96
70314;BME280;57725;47.526;18.986;2023-04-24T04:54:06;98901.66;;;14.73;91.96
70314;BME280;57725;47.526;18.986;2023-04-24T04:56:32;98898.19;;;14.72;92.22
70314;BME280;57725;47.526;18.986;2023-04-24T04:58:58;98906.91;;;14.73;92.10
70314;BME280;57725;47.526;18.986;2023-04-24T05:01:24;98905.25;;;14.72;92.28
70314;BME280;57725;47.526;18.986;2023-04-24T05:03:50;98899.13;;;14.71;92.21
70314;BME280;57725;47.526;18.986;2023-04-24T05:06:16;98897.34;;;14.72;92.05
70314;BME280;57725;47.526;18.986;2023-04-24T05:08:44;98890.41;;;14.71;92.24
70314;BME280;57725;47.526;18.986;2023-04-24T05:11:12;98900.94;;;14.71;92.23
70314;BME280;57725;47.526;18.986;2023-04-24T05:13:37;98895.66;;;14.71;92.08
70314;BME280;57725;47.526;18.986;2023-04-24T05:16:05;98889.06;;;14.65;92.15
70314;BME280;57725;47.526;18.986;2023-04-24T05:18:31;98896.63;;;14.70;92.29
70314;BME280;57725;47.526;18.986;2023-04-24T05:20:56;98901.03;;;14.69;92.22
70314;BME280;57725;47.526;18.986;2023-04-24T05:23:24;98891.34;;;14.70;92.45
70314;BME280;57725;47.526;18.986;2023-04-24T05:25:49;98889.78;;;14.67;92.20
70314;BME280;57725;47.526;18.986;2023-04-24T05:28:19;98900.19;;;14.69;92.07
70314;BME280;57725;47.526;18.986;2023-04-24T05:30:46;98906.41;;;14.68;92.10
70314;BME280;57725;47.526;18.986;2023-04-24T05:33:13;98905.56;;;14.67;92.31
70314;BME280;57725;47.526;18.986;2023-04-24T05:35:40;98908.19;;;14.67;92.24
70314;BME280;57725;47.526;18.986;2023-04-24T05:38:11;98907.38;;;14.67;92.45
70314;BME280;57725;47.526;18.986;2023-04-24T05:40:41;98907.38;;;14.67;92.19
70314;BME280;57725;47.526;18.986;2023-04-24T05:43:11;98905.69;;;14.66;92.42
70314;BME280;57725;47.526;18.986;2023-04-24T05:45:38;98905.69;;;14.66;92.29
70314;BME280;57725;47.526;18.986;2023-04-24T05:48:03;98906.66;;;14.65;92.29
70314;BME280;57725;47.526;18.986;2023-04-24T05:50:28;98900.56;;;14.64;92.42
70314;BME280;57725;47.526;18.986;2023-04-24T05:52:54;98906.66;;;14.65;92.46
70314;BME280;57725;47.526;18.986;2023-04-24T05:55:25;98904.03;;;14.65;92.59
70314;BME280;57725;47.526;18.986;2023-04-24T05:57:51;98899.72;;;14.64;92.45
70314;BME280;57725;47.526;18.986;2023-04-24T06:00:16;98904.03;;;14.65;92.28
70314;BME280;57725;47.526;18.986;2023-04-24T06:02:44;98905.81;;;14.64;92.36
70314;BME280;57725;47.526;18.986;2023-04-24T06:05:12;98893.63;;;14.63;92.51
70314;BME280;57725;47.526;18.986;2023-04-24T06:07:37;98902.34;;;14.64;92.61
70314;BME280;57725;47.526;18.986;2023-04-24T06:10:05;98892.78;;;14.63;92.71
70314;BME280;57725;47.526;18.986;2023-04-24T06:12:34;98907.63;;;14.64;92.71
70314;BME280;57725;47.526;18.986;2023-04-24T06:14:59;98903.31;;;14.63;92.35
70314;BME280;57725;47.526;18.986;2023-04-24T06:17:25;98903.31;;;14.63;92.44
70314;BME280;57725;47.526;18.986;2023-04-24T06:19:50;98902.47;;;14.62;92.74
70314;BME280;57725;47.526;18.986;2023-04-24T06:22:18;98907.72;;;14.62;92.55
70314;BME280;57725;47.526;18.986;2023-04-24T06:24:43;98908.56;;;14.63;92.61
70314;BME280;57725;47.526;18.986;2023-04-24T06:27:09;98908.69;;;14.61;92.67
70314;BME280;57725;47.526;18.986;2023-04-24T06:29:36;98912.16;;;14.62;92.64
70314;BME280;57725;47.526;18.986;2023-04-24T06:32:01;98900.69;;;14.63;92.71
70314;BME280;57725;47.526;18.986;2023-04-24T06:34:27;98904.25;;;14.62;92.56
70314;BME280;57725;47.526;18.986;2023-04-24T06:36:53;98899.94;;;14.61;92.64
70314;BME280;57725;47.526;18.986;2023-04-24T06:39:22;98907.84;;;14.61;92.76
70314;BME280;57725;47.526;18.986;2023-04-24T06:42:01;98893.84;;;14.60;92.40
70314;BME280;57725;47.526;18.986;2023-04-24T06:44:27;98893.00;;;14.60;92.44
70314;BME280;57725;47.526;18.986;2023-04-24T06:46:57;98900.06;;;14.59;92.65
70314;BME280;57725;47.526;18.986;2023-04-24T06:49:23;98898.25;;;14.60;92.67
70314;BME280;57725;47.526;18.986;2023-04-24T06:51:48;98903.53;;;14.60;92.77
70314;BME280;57725;47.526;18.986;2023-04-24T06:54:16;98899.09;;;14.60;92.78
70314;BME280;57725;47.526;18.986;2023-04-24T06:56:44;98904.38;;;14.60;92.49
70314;BME280;57725;47.526;18.986;2023-04-24T06:59:11;98904.38;;;14.60;92.60
70314;BME280;57725;47.526;18.986;2023-04-24T07:01:39;98900.06;;;14.59;92.52
70314;BME280;57725;47.526;18.986;2023-04-24T07:04:04;98896.59;;;14.59;92.47
70314;BME280;57725;47.526;18.986;2023-04-24T07:06:30;98890.47;;;14.58;92.70
70314;BME280;57725;47.526;18.986;2023-04-24T07:08:58;98890.47;;;14.58;92.87
70314;BME280;57725;47.526;18.986;2023-04-24T07:11:27;98895.75;;;14.58;92.83
70314;BME280;57725;47.526;18.986;2023-04-24T07:13:56;98899.31;;;14.57;92.74
70314;BME280;57725;47.526;18.986;2023-04-24T07:16:22;98891.31;;;14.59;92.86
70314;BME280;57725;47.526;18.986;2023-04-24T07:18:47;98890.38;;;14.60;92.76
70314;BME280;57725;47.526;18.986;2023-04-24T07:21:15;98891.44;;;14.57;92.79
70314;BME280;57725;47.526;18.986;2023-04-24T07:23:40;98898.38;;;14.58;92.79
70314;BME280;57725;47.526;18.986;2023-04-24T07:26:06;98901.94;;;14.57;93.02
70314;BME280;57725;47.526;18.986;2023-04-24T07:28:32;98904.59;;;14.57;92.72
70314;BME280;57725;47.526;18.986;2023-04-24T07:30:59;98902.69;;;14.59;92.70
70314;BME280;57725;47.526;18.986;2023-04-24T07:33:28;98899.31;;;14.57;92.87
70314;BME280;57725;47.526;18.986;2023-04-24T07:35:55;98901.00;;;14.58;92.77
70314;BME280;57725;47.526;18.986;2023-04-24T07:38:21;98895.75;;;14.58;92.75
70314;BME280;57725;47.526;18.986;2023-04-24T07:40:48;98891.31;;;14.59;92.97
70314;BME280;57725;47.526;18.986;2023-04-24T07:43:13;98893.00;;;14.60;93.00
70314;BME280;57725;47.526;18.986;2023-04-24T07:45:41;98887.84;;;14.58;92.98
70314;BME280;57725;47.526;18.986;2023-04-24T07:48:06;98888.69;;;14.59;92.89
70314;BME280;57725;47.526;18.986;2023-04-24T07:50:34;98887.84;;;14.58;93.18
70314;BME280;57725;47.526;18.986;2023-04-24T07:53:01;98885.22;;;14.58;93.38
70314;BME280;57725;47.526;18.986;2023-04-24T07:55:28;98879.00;;;14.59;93.29
70314;BME280;57725;47.526;18.986;2023-04-24T07:57:53;98889.41;;;14.61;93.25
70314;BME280;57725;47.526;18.986;2023-04-24T08:00:19;98890.38;;;14.60;93.29
70314;BME280;57725;47.526;18.986;2023-04-24T08:02:45;98887.75;;;14.60;93.43
70314;BME280;57725;47.526;18.986;2023-04-24T08:05:13;98900.69;;;14.63;93.62
70314;BME280;57725;47.526;18.986;2023-04-24T08:07:41;98895.53;;;14.61;93.78
70314;BME280;57725;47.526;18.986;2023-04-24T08:10:10;98888.47;;;14.62;93.77
70314;BME280;57725;47.526;18.986;2023-04-24T08:12:38;98895.41;;;14.63;94.10
70314;BME280;57725;47.526;18.986;2023-04-24T08:15:05;98887.53;;;14.63;94.10
70314;BME280;57725;47.526;18.986;2023-04-24T08:17:33;98884.88;;;14.63;93.96
70314;BME280;57725;47.526;18.986;2023-04-24T08:19:58;98891.00;;;14.63;94.05
70314;BME280;57725;47.526;18.986;2023-04-24T08:22:27;98892.78;;;14.63;94.00
70314;BME280;57725;47.526;18.986;2023-04-24T08:24:55;98886.78;;;14.61;93.75
70314;BME280;57725;47.526;18.986;2023-04-24T08:27:23;98887.53;;;14.63;93.91
70314;BME280;57725;47.526;18.986;2023-04-24T08:29:53;98886.69;;;14.62;93.94
70314;BME280;57725;47.526;18.986;2023-04-24T08:32:18;98887.53;;;14.63;93.65
70314;BME280;57725;47.526;18.986;2023-04-24T08:34:46;98892.78;;;14.63;93.64
70314;BME280;57725;47.526;18.986;2023-04-24T08:37:15;98894.47;;;14.64;93.70
70314;BME280;57725;47.526;18.986;2023-04-24T08:39:40;98894.56;;;14.62;93.72
70314;BME280;57725;47.526;18.986;2023-04-24T08:42:06;98887.53;;;14.63;93.48
70314;BME280;57725;47.526;18.986;2023-04-24T08:44:35;98897.09;;;14.64;93.85
70314;BME280;57725;47.526;18.986;2023-04-24T08:47:06;98892.66;;;14.64;93.60
70314;BME280;57725;47.526;18.986;2023-04-24T08:49:33;98889.19;;;14.64;93.64
70314;BME280;57725;47.526;18.986;2023-04-24T08:52:01;98900.41;;;14.66;93.80
70314;BME280;57725;47.526;18.986;2023-04-24T08:54:29;98896.94;;;14.65;93.55
70314;BME280;57725;47.526;18.986;2023-04-24T08:56:59;98895.16;;;14.66;93.62
70314;BME280;57725;47.526;18.986;2023-04-24T08:59:29;98886.31;;;14.67;93.82
70314;BME280;57725;47.526;18.986;2023-04-24T09:01:55;98882.84;;;14.66;93.61
70314;BME280;57725;47.526;18.986;2023-04-24T09:04:24;98887.03;;;14.69;93.90
70314;BME280;57725;47.526;18.986;2023-04-24T09:06:55;98884.41;;;14.69;93.94
70314;BME280;57725;47.526;18.986;2023-04-24T09:09:23;98880.09;;;14.68;94.03
70314;BME280;57725;47.526;18.986;2023-04-24T09:11:51;98891.25;;;14.71;93.82
70314;BME280;57725;47.526;18.986;2023-04-24T09:14:21;98876.31;;;14.72;94.05
70314;BME280;57725;47.526;18.986;2023-04-24T09:16:48;98882.41;;;14.72;94.20
70314;BME280;57725;47.526;18.986;2023-04-24T09:19:16;98881.44;;;14.73;94.06
70314;BME280;57725;47.526;18.986;2023-04-24T09:21:52;98869.13;;;14.74;94.30
70314;BME280;57725;47.526;18.986;2023-04-24T09:24:19;98866.41;;;14.75;94.32
70314;BME280;57725;47.526;18.986;2023-04-24T09:26:48;98867.25;;;14.76;94.25
70314;BME280;57725;47.526;18.986;2023-04-24T09:29:18;98865.56;;;14.75;94.12
70314;BME280;57725;47.526;18.986;2023-04-24T09:31:45;98863.63;;;14.77;94.29
70314;BME280;57725;47.526;18.986;2023-04-24T09:34:13;98854.91;;;14.76;94.59
70314;BME280;57725;47.526;18.986;2023-04-24T09:36:40;98855.63;;;14.78;94.43
70314;BME280;57725;47.526;18.986;2023-04-24T09:39:08;98849.41;;;14.79;94.54
70314;BME280;57725;47.526;18.986;2023-04-24T09:41:49;98854.56;;;14.81;94.48
70314;BME280;57725;47.526;18.986;2023-04-24T09:44:16;98846.53;;;14.82;94.45
70314;BME280;57725;47.526;18.986;2023-04-24T09:46:51;98848.34;;;14.82;94.34
70314;BME280;57725;47.526;18.986;2023-04-24T09:49:23;98837.81;;;14.82;94.48
70314;BME280;57725;47.526;18.986;2023-04-24T09:51:51;98842.00;;;14.84;94.61
70314;BME280;57725;47.526;18.986;2023-04-24T09:54:23;98846.44;;;14.84;94.43
70314;BME280;57725;47.526;18.986;2023-04-24T09:56:50;98850.63;;;14.87;94.40
70314;BME280;57725;47.526;18.986;2023-04-24T09:59:19;98853.97;;;14.89;94.43
70314;BME280;57725;47.526;18.986;2023-04-24T10:01:45;98851.31;;;14.89;94.52
70314;BME280;57725;47.526;18.986;2023-04-24T10:04:21;98848.59;;;14.90;94.53
70314;BME280;57725;47.526;18.986;2023-04-24T10:06:49;98852.16;;;14.89;94.62
70314;BME280;57725;47.526;18.986;2023-04-24T10:09:16;98848.47;;;14.92;94.62
70314;BME280;57725;47.526;18.986;2023-04-24T10:11:48;98851.09;;;14.92;94.78
70314;BME280;57725;47.526;18.986;2023-04-24T10:14:16;98845.72;;;14.93;94.44
70314;BME280;57725;47.526;18.986;2023-04-24T10:16:42;98841.31;;;14.94;94.44
70314;BME280;57725;47.526;18.986;2023-04-24T10:19:08;98843.81;;;14.95;94.12
70314;BME280;57725;47.526;18.986;2023-04-24T10:21:38;98837.59;;;14.96;94.24
70314;BME280;57725;47.526;18.986;2023-04-24T10:24:08;98841.06;;;14.97;94.17
70314;BME280;57725;47.526;18.986;2023-04-24T10:26:36;98840.97;;;14.98;94.18
70314;BME280;57725;47.526;18.986;2023-04-24T10:29:04;98838.22;;;15.00;94.05
70314;BME280;57725;47.526;18.986;2023-04-24T10:31:35;98831.97;;;15.01;94.20
70314;BME280;57725;47.526;18.986;2023-04-24T10:34:08;98832.81;;;15.01;94.19
70314;BME280;57725;47.526;18.986;2023-04-24T10:36:34;98828.25;;;15.03;94.09
70314;BME280;57725;47.526;18.986;2023-04-24T10:39:04;98840.47;;;15.04;94.13
70314;BME280;57725;47.526;18.986;2023-04-24T10:41:31;98826.34;;;15.05;94.35
70314;BME280;57725;47.526;18.986;2023-04-24T10:44:12;98832.34;;;15.07;94.09
70314;BME280;57725;47.526;18.986;2023-04-24T10:46:42;98827.09;;;15.07;94.15
70314;BME280;57725;47.526;18.986;2023-04-24T10:49:08;98835.69;;;15.09;93.90
70314;BME280;57725;47.526;18.986;2023-04-24T10:51:51;98824.22;;;15.10;93.77
70314;BME280;57725;47.526;18.986;2023-04-24T10:54:29;98832.97;;;15.11;93.72
70314;BME280;57725;47.526;18.986;2023-04-24T10:57:28;98835.44;;;15.12;93.81
70314;BME280;57725;47.526;18.986;2023-04-24T11:00:20;98828.25;;;15.14;93.64
70314;BME280;57725;47.526;18.986;2023-04-24T11:02:52;98823.22;;;15.11;93.49
70314;BME280;57725;47.526;18.986;2023-04-24T11:05:18;98825.53;;;15.16;93.83
70314;BME280;57725;47.526;18.986;2023-04-24T11:10:39;98819.19;;;15.18;94.06
70314;BME280;57725;47.526;18.986;2023-04-24T11:13:04;98820.88;;;15.19;93.92
70314;BME280;57725;47.526;18.986;2023-04-24T11:15:30;98813.81;;;15.20;93.88
70314;BME280;57725;47.526;18.986;2023-04-24T11:17:55;98818.94;;;15.21;93.76
70314;BME280;57725;47.526;18.986;2023-04-24T11:20:23;98803.00;;;15.23;93.71
70314;BME280;57725;47.526;18.986;2023-04-24T11:22:55;98810.91;;;15.23;93.61
70314;BME280;57725;47.526;18.986;2023-04-24T11:25:21;98809.84;;;15.26;93.50
70314;BME280;57725;47.526;18.986;2023-04-24T11:27:47;98803.72;;;15.25;93.32
70314;BME280;57725;47.526;18.986;2023-04-24T11:30:19;98799.19;;;15.27;93.61
70314;BME280;57725;47.526;18.986;2023-04-24T11:32:49;98793.91;;;15.27;93.55
70314;BME280;57725;47.526;18.986;2023-04-24T11:35:20;98800.75;;;15.30;93.64
70314;BME280;57725;47.526;18.986;2023-04-24T11:37:49;98800.63;;;15.31;93.26
70314;BME280;57725;47.526;18.986;2023-04-24T11:40:16;98799.69;;;15.32;93.28
70314;BME280;57725;47.526;18.986;2023-04-24T11:42:44;98787.22;;;15.34;93.20
70314;BME280;57725;47.526;18.986;2023-04-24T11:45:17;98786.25;;;15.35;93.35
70314;BME280;57725;47.526;18.986;2023-04-24T11:47:45;98790.56;;;15.36;93.57
70314;BME280;57725;47.526;18.986;2023-04-24T11:50:12;98786.00;;;15.38;93.23
70314;BME280;57725;47.526;18.986;2023-04-24T11:52:44;98785.06;;;15.39;93.18
70314;BME280;57725;47.526;18.986;2023-04-24T11:57:49;98771.66;;;15.42;93.34
70314;BME280;57725;47.526;18.986;2023-04-24T12:00:20;98762.66;;;15.45;93.79
70314;BME280;57725;47.526;18.986;2023-04-24T12:02:51;98764.47;;;15.44;93.35
70314;BME280;57725;47.526;18.986;2023-04-24T12:05:24;98763.50;;;15.45;93.31
70314;BME280;57725;47.526;18.986;2023-04-24T12:07:51;98769.63;;;15.46;93.30
70314;BME280;57725;47.526;18.986;2023-04-24T12:10:21;98768.50;;;15.48;93.80
70314;BME280;57725;47.526;18.986;2023-04-24T12:12:47;98769.34;;;15.49;94.18
70314;BME280;57725;47.526;18.986;2023-04-24T12:15:17;98763.13;;;15.50;94.24
70314;BME280;57725;47.526;18.986;2023-04-24T12:17:43;98759.66;;;15.49;94.45
70314;BME280;57725;47.526;18.986;2023-04-24T12:20:09;98759.53;;;15.51;94.11
70314;BME280;57725;47.526;18.986;2023-04-24T12:25:12;98754.25;;;15.51;93.66
70314;BME280;57725;47.526;18.986;2023-04-24T12:27:40;98750.78;;;15.50;93.52
70314;BME280;57725;47.526;18.986;2023-04-24T12:30:11;98750.66;;;15.52;93.28
70314;BME280;57725;47.526;18.986;2023-04-24T12:32:41;98755.94;;;15.52;93.36
70314;BME280;57725;47.526;18.986;2023-04-24T12:35:09;98754.16;;;15.52;93.24
70314;BME280;57725;47.526;18.986;2023-04-24T12:37:35;98755.81;;;15.53;93.40
70314;BME280;57725;47.526;18.986;2023-04-24T12:40:08;98754.91;;;15.54;93.20
70314;BME280;57725;47.526;18.986;2023-04-24T12:42:34;98753.94;;;15.55;93.13
70314;BME280;57725;47.526;18.986;2023-04-24T12:45:06;98746.03;;;15.55;92.78
70314;BME280;57725;47.526;18.986;2023-04-24T12:47:37;98739.09;;;15.54;92.70
70314;BME280;57725;47.526;18.986;2023-04-24T12:50:06;98742.66;;;15.53;92.87
70314;BME280;57725;47.526;18.986;2023-04-24T12:52:34;98736.22;;;15.57;92.64
70314;BME280;57725;47.526;18.986;2023-04-24T12:55:00;98745.91;;;15.57;92.67
70314;BME280;57725;47.526;18.986;2023-04-24T12:57:29;98738.69;;;15.59;92.53
70314;BME280;57725;47.526;18.986;2023-04-24T12:59:56;98730.78;;;15.59;92.36
70314;BME280;57725;47.526;18.986;2023-04-24T13:02:28;98734.25;;;15.60;92.24